createdAt,value
2022-11-24T00:00:50.535Z,6.67
2022-11-24T00:05:50.494Z,6.66
2022-11-24T00:10:50.465Z,6.61
2022-11-24T00:15:50.315Z,6.63
2022-11-24T00:20:55.278Z,6.63
2022-11-24T00:25:50.325Z,6.63
2022-11-24T00:30:50.386Z,6.64
2022-11-24T00:35:57.447Z,6.66
2022-11-24T00:40:50.442Z,6.68
2022-11-24T00:45:50.485Z,6.73
2022-11-24T00:50:58.457Z,6.8
2022-11-24T00:55:52.321Z,6.84
2022-11-24T01:00:51.064Z,6.86
2022-11-24T01:05:50.776Z,6.86
2022-11-24T01:10:53.056Z,6.84
2022-11-24T01:15:50.388Z,6.82
2022-11-24T01:20:50.357Z,6.79
2022-11-24T01:25:50.416Z,6.8
2022-11-24T01:31:00.063Z,6.77
2022-11-24T02:06:13.430Z,6.68
2022-11-24T02:10:51.763Z,6.65
2022-11-24T02:15:50.397Z,6.66
2022-11-24T02:20:50.469Z,6.69
2022-11-24T02:25:54.707Z,6.7
2022-11-24T02:30:50.678Z,6.69
2022-11-24T02:35:50.680Z,6.72
2022-11-24T02:40:52.227Z,6.71
2022-11-24T02:45:50.608Z,6.66
2022-11-24T02:50:50.480Z,6.66
2022-11-24T02:55:50.380Z,6.63
2022-11-24T03:00:53.868Z,6.62
2022-11-24T03:05:50.419Z,6.57
2022-11-24T03:10:50.408Z,6.53
2022-11-24T03:15:52.342Z,6.5
2022-11-24T03:20:50.389Z,6.47
2022-11-24T03:25:52.058Z,6.42
2022-11-24T03:30:51.805Z,6.38
2022-11-24T03:35:52.543Z,6.36
2022-11-24T03:40:50.354Z,6.3
2022-11-24T03:45:53.247Z,6.29
2022-11-24T03:50:56.116Z,6.24
2022-11-24T03:55:50.924Z,6.25
2022-11-24T04:00:52.024Z,6.23
2022-11-24T04:05:50.797Z,6.24
2022-11-24T04:10:53.199Z,6.24
2022-11-24T04:15:50.415Z,6.24
2022-11-24T04:20:52.944Z,6.22
2022-11-24T04:25:50.304Z,6.27
2022-11-24T04:30:52.065Z,6.3
2022-11-24T04:35:50.841Z,6.24
2022-11-24T04:40:52.743Z,6.28
2022-11-24T04:45:50.336Z,6.33
2022-11-24T04:50:50.321Z,6.33
2022-11-24T04:55:50.385Z,6.38
2022-11-24T05:00:50.337Z,6.38
2022-11-24T05:05:50.266Z,6.36
2022-11-24T05:10:50.258Z,6.43
2022-11-24T05:15:50.463Z,6.41
2022-11-24T05:20:50.363Z,6.37
2022-11-24T05:25:50.320Z,6.35
2022-11-24T05:30:53.079Z,6.35
2022-11-24T05:35:50.852Z,6.34
2022-11-24T05:40:50.508Z,6.33
2022-11-24T05:45:50.738Z,6.33
2022-11-24T05:50:56.326Z,6.33
2022-11-24T05:55:50.347Z,6.34
2022-11-24T06:00:50.434Z,6.32
2022-11-24T06:05:52.918Z,6.35
2022-11-24T06:10:50.440Z,6.43
2022-11-24T06:15:50.355Z,6.42
2022-11-24T06:21:09.484Z,6.43
2022-11-24T06:25:51.723Z,6.43
2022-11-24T06:30:50.248Z,6.47
2022-11-24T06:35:50.226Z,6.47
2022-11-24T06:40:50.487Z,6.48
2022-11-24T06:45:54.904Z,6.48
2022-11-24T06:50:51.124Z,6.51
2022-11-24T06:55:50.539Z,6.52
2022-11-24T07:00:50.474Z,6.53
2022-11-24T07:05:50.419Z,6.55
2022-11-24T07:10:53.079Z,6.55
2022-11-24T07:15:50.281Z,6.54
2022-11-24T07:20:50.211Z,6.53
2022-11-24T07:25:50.302Z,6.52
2022-11-24T07:30:50.297Z,6.51
2022-11-24T07:35:50.508Z,6.52
2022-11-24T07:40:53.361Z,6.51
2022-11-24T07:45:54.891Z,6.46
2022-11-24T07:50:55.481Z,6.43
2022-11-24T07:55:56.178Z,6.41
2022-11-24T08:00:50.373Z,6.42
2022-11-24T08:06:22.097Z,6.44
2022-11-24T08:10:53.336Z,6.44
2022-11-24T08:15:50.409Z,6.44
2022-11-24T08:20:50.437Z,6.44
2022-11-24T08:25:55.593Z,6.45
2022-11-24T08:30:50.509Z,6.46
2022-11-24T08:35:50.333Z,6.47
2022-11-24T08:40:50.280Z,6.5
2022-11-24T08:45:50.391Z,6.55
2022-11-24T08:50:50.249Z,6.6
2022-11-24T08:55:50.537Z,6.65
2022-11-24T09:00:50.484Z,6.75
2022-11-24T09:05:52.326Z,6.81
2022-11-24T09:10:51.240Z,6.9
2022-11-24T09:15:50.443Z,6.96
2022-11-24T09:20:58.109Z,7
2022-11-24T09:25:50.282Z,7.09
2022-11-24T09:30:50.596Z,7.11
2022-11-24T09:35:53.444Z,7.18
2022-11-24T09:40:51.129Z,7.39
2022-11-24T09:46:06.050Z,7.57
2022-11-24T09:50:53.176Z,7.65
2022-11-24T09:55:51.994Z,7.72
2022-11-24T10:00:53.694Z,7.81
2022-11-24T10:05:53.296Z,7.93
2022-11-24T10:10:56.218Z,7.97
2022-11-24T10:15:53.984Z,8.04
2022-11-24T10:20:54.839Z,8.09
2022-11-24T10:25:55.731Z,8.16
2022-11-24T10:30:50.526Z,8.3
2022-11-24T10:35:55.429Z,8.36
2022-11-24T10:40:57.375Z,8.4
2022-11-24T10:45:53.779Z,8.45
2022-11-24T10:50:50.390Z,8.47
2022-11-24T10:56:08.300Z,8.51
2022-11-24T11:00:50.226Z,8.61
2022-11-24T11:05:51.798Z,8.72
2022-11-24T11:10:52.700Z,8.83
2022-11-24T11:15:50.472Z,8.87
2022-11-24T11:20:52.951Z,8.83
2022-11-24T11:25:52.574Z,8.94
2022-11-24T11:31:18.136Z,9.03
2022-11-24T11:35:52.753Z,9.07
2022-11-24T11:40:52.479Z,9.13
2022-11-24T11:45:54.361Z,9.18
2022-11-24T11:51:21.774Z,9.18
2022-11-24T11:55:57.901Z,9.27
2022-11-24T12:00:55.581Z,9.29
2022-11-24T12:05:54.888Z,9.37
2022-11-24T12:10:54.054Z,9.47
2022-11-24T12:15:53.326Z,9.59
2022-11-24T12:20:59.559Z,9.62
2022-11-24T12:25:52.482Z,9.64
2022-11-24T12:30:52.847Z,9.64
2022-11-24T12:35:52.600Z,9.78
2022-11-24T12:41:25.588Z,9.74
2022-11-24T12:45:55.113Z,9.7
2022-11-24T12:50:50.598Z,9.7
2022-11-24T12:55:50.479Z,9.66
2022-11-24T13:00:56.761Z,9.6
2022-11-24T13:05:55.909Z,9.58
2022-11-24T13:10:57.386Z,9.57
2022-11-24T13:20:50.185Z,9.6
2022-11-24T13:26:00.235Z,9.62
2022-11-24T13:31:01.663Z,9.54
2022-11-24T13:36:00.873Z,9.45
2022-11-24T13:41:21.055Z,9.44
2022-11-24T13:45:56.427Z,9.42
2022-11-24T13:51:01.380Z,9.36
2022-11-24T13:55:56.400Z,9.3
2022-11-24T14:01:03.870Z,9.22
2022-11-24T14:05:54.650Z,9.15
2022-11-24T14:10:50.147Z,9.11
2022-11-24T14:16:00.445Z,9.07
2022-11-24T14:20:50.281Z,9.02
2022-11-24T14:25:53.861Z,8.96
2022-11-24T14:30:52.088Z,8.9
2022-11-24T14:35:51.250Z,8.84
2022-11-24T14:40:54.103Z,8.79
2022-11-24T14:45:56.724Z,8.73
2022-11-24T14:50:50.268Z,8.68
2022-11-24T14:56:13.483Z,8.64
2022-11-24T15:01:00.307Z,8.6
2022-11-24T15:06:02.003Z,8.57
2022-11-24T15:10:50.855Z,8.49
2022-11-24T15:15:51.991Z,8.43
2022-11-24T15:20:51.782Z,8.38
2022-11-24T15:25:50.310Z,8.33
2022-11-24T15:30:50.288Z,8.28
2022-11-24T15:35:50.502Z,8.25
2022-11-24T15:40:51.244Z,8.21
2022-11-24T15:45:50.128Z,8.16
2022-11-24T15:50:51.538Z,8.06
2022-11-24T15:55:50.549Z,7.99
2022-11-24T16:00:50.700Z,7.9
2022-11-24T16:05:51.265Z,7.83
2022-11-24T16:10:51.665Z,7.78
2022-11-24T16:15:52.556Z,7.72
2022-11-24T16:20:50.131Z,7.66
2022-11-24T16:25:50.205Z,7.61
2022-11-24T16:30:51.289Z,7.56
2022-11-24T16:35:50.496Z,7.5
2022-11-24T16:40:54.184Z,7.45
2022-11-24T16:45:50.262Z,7.42
2022-11-24T16:50:50.295Z,7.39
2022-11-24T16:55:59.764Z,7.35
2022-11-24T17:00:50.248Z,7.3
2022-11-24T17:05:59.703Z,7.28
2022-11-24T17:10:50.250Z,7.3
2022-11-24T17:15:54.166Z,7.28
2022-11-24T17:20:50.199Z,7.32
2022-11-24T17:25:50.162Z,7.35
2022-11-24T17:30:50.171Z,7.4
2022-11-24T17:35:50.168Z,7.37
2022-11-24T17:40:53.633Z,7.32
2022-11-24T17:45:56.133Z,7.32
2022-11-24T17:50:50.200Z,7.34
2022-11-24T17:55:50.576Z,7.33
2022-11-24T18:00:59.345Z,7.3
2022-11-24T18:05:49.998Z,7.29
2022-11-24T18:10:50.675Z,7.3
2022-11-24T18:15:50.640Z,7.29
2022-11-24T18:20:56.613Z,7.33
2022-11-24T18:25:56.395Z,7.36
2022-11-24T18:30:51.334Z,7.37
2022-11-24T18:35:59.437Z,7.37
2022-11-24T18:40:56.877Z,7.36
2022-11-24T18:45:53.592Z,7.36
2022-11-24T18:50:53.175Z,7.35
2022-11-24T18:55:58.326Z,7.33
2022-11-24T19:00:50.325Z,7.31
2022-11-24T19:05:50.882Z,7.3
2022-11-24T19:10:51.114Z,7.27
2022-11-24T19:15:52.434Z,7.24
2022-11-24T19:20:51.546Z,7.2
2022-11-24T19:25:50.675Z,7.17
2022-11-24T19:30:51.250Z,7.14
2022-11-24T19:35:53.090Z,7.14
2022-11-24T19:40:51.291Z,7.13
2022-11-24T19:45:50.730Z,7.13
2022-11-24T19:50:52.761Z,7.1
2022-11-24T19:55:52.073Z,7.11
2022-11-24T20:00:50.623Z,7.14
2022-11-24T20:05:57.719Z,7.13
2022-11-24T20:10:50.946Z,7.13
2022-11-24T20:15:51.537Z,7.12
2022-11-24T20:20:51.095Z,7.13
2022-11-24T20:25:54.120Z,7.12
2022-11-24T20:30:52.588Z,7.15
2022-11-24T20:35:51.576Z,7.16
2022-11-24T20:40:51.601Z,7.17
2022-11-24T20:45:51.540Z,7.21
2022-11-24T20:50:51.833Z,7.23
2022-11-24T20:55:50.924Z,7.27
2022-11-24T21:00:52.109Z,7.3
2022-11-24T21:05:52.598Z,7.31
2022-11-24T21:10:56.854Z,7.35
2022-11-24T21:15:53.071Z,7.36
2022-11-24T21:20:51.113Z,7.35
2022-11-24T21:25:51.202Z,7.35
2022-11-24T21:30:51.189Z,7.36
2022-11-24T21:35:51.665Z,7.38
2022-11-24T21:40:50.859Z,7.4
2022-11-24T21:45:51.865Z,7.42
2022-11-24T21:50:49.990Z,7.43
2022-11-24T21:55:57.297Z,7.43
2022-11-24T22:00:51.411Z,7.43
2022-11-24T22:05:56.146Z,7.41
2022-11-24T22:10:50.056Z,7.4
2022-11-24T22:15:50.040Z,7.41
2022-11-24T22:20:57.078Z,7.41
2022-11-24T22:25:50.174Z,7.42
2022-11-24T22:30:50.093Z,7.44
2022-11-24T22:35:58.775Z,7.44
2022-11-24T22:40:50.122Z,7.44
2022-11-24T22:45:50.185Z,7.46
2022-11-24T22:50:50.081Z,7.48
2022-11-24T22:55:50.145Z,7.47
2022-11-24T23:00:50.325Z,7.48
2022-11-24T23:05:50.048Z,7.47
2022-11-24T23:10:50.035Z,7.49
2022-11-24T23:15:50.149Z,7.5
2022-11-24T23:20:50.230Z,7.49
2022-11-24T23:25:51.437Z,7.5
2022-11-24T23:30:50.194Z,7.5
2022-11-24T23:35:52.012Z,7.51
2022-11-24T23:40:50.745Z,7.54
2022-11-24T23:45:50.450Z,7.55
2022-11-24T23:50:49.918Z,7.55
2022-11-24T23:55:55.507Z,7.56
